createdAt,value
2018-07-10T00:00:05.456Z,978.44
2018-07-10T00:01:05.462Z,978.44
2018-07-10T00:02:04.851Z,978.34
2018-07-10T00:03:05.573Z,978.37
2018-07-10T00:04:05.696Z,978.42
2018-07-10T00:05:05.883Z,978.25
2018-07-10T00:06:05.731Z,978.40
2018-07-10T00:07:04.931Z,978.25
2018-07-10T00:08:05.918Z,978.45
2018-07-10T00:09:06.153Z,978.34
2018-07-10T00:10:05.628Z,978.25
2018-07-10T00:11:05.261Z,978.28
2018-07-10T00:12:05.771Z,978.31
2018-07-10T00:13:05.717Z,978.22
2018-07-10T00:14:06.359Z,978.25
2018-07-10T00:15:04.916Z,978.25
2018-07-10T00:16:04.922Z,978.31
2018-07-10T00:17:05.972Z,978.25
2018-07-10T00:18:05.985Z,978.28
2018-07-10T00:19:05.294Z,978.31
2018-07-10T00:20:05.419Z,978.22
2018-07-10T00:21:05.357Z,978.25
2018-07-10T00:22:05.906Z,978.25
2018-07-10T00:23:05.845Z,978.31
2018-07-10T00:24:05.184Z,978.34
2018-07-10T00:25:05.858Z,978.31
2018-07-10T00:26:05.852Z,978.14
2018-07-10T00:27:06.266Z,978.22
2018-07-10T00:28:05.626Z,978.22
2018-07-10T00:29:05.285Z,978.11
2018-07-10T00:30:05.404Z,978.16
2018-07-10T00:31:06.999Z,978.11
2018-07-10T00:32:05.072Z,978.11
2018-07-10T00:33:05.716Z,978.11
2018-07-10T00:34:05.045Z,978.19
2018-07-10T00:35:06.168Z,978.11
2018-07-10T00:36:10.680Z,978.13
2018-07-10T00:37:06.120Z,978.11
2018-07-10T00:38:05.192Z,978.10
2018-07-10T00:39:05.266Z,978.16
2018-07-10T00:40:05.140Z,978.16
2018-07-10T00:41:05.485Z,978.07
2018-07-10T00:42:04.962Z,978.19
2018-07-10T00:43:05.649Z,978.13
2018-07-10T00:44:05.344Z,978.13
2018-07-10T00:45:05.688Z,977.96
2018-07-10T00:46:04.936Z,978.10
2018-07-10T00:47:05.348Z,978.16
2018-07-10T00:48:05.177Z,978.01
2018-07-10T00:49:05.824Z,978.07
2018-07-10T00:50:05.376Z,978.19
2018-07-10T00:51:05.816Z,978.02
2018-07-10T00:52:05.694Z,978.16
2018-07-10T00:53:05.038Z,978.01
2018-07-10T00:54:05.412Z,978.19
2018-07-10T00:55:05.322Z,978.01
2018-07-10T00:56:05.007Z,978.13
2018-07-10T00:57:05.163Z,978.02
2018-07-10T00:58:10.326Z,978.13
2018-07-10T00:59:05.618Z,978.16
2018-07-10T01:00:05.317Z,978.07
2018-07-10T01:01:05.786Z,978.13
2018-07-10T01:02:04.934Z,978.16
2018-07-10T01:03:05.226Z,978.02
2018-07-10T01:04:05.181Z,978.22
2018-07-10T01:05:10.910Z,978.14
2018-07-10T01:06:04.971Z,978.20
2018-07-10T01:07:06.353Z,978.17
2018-07-10T01:08:05.390Z,978.14
2018-07-10T01:09:05.487Z,978.14
2018-07-10T01:10:05.112Z,978.26
2018-07-10T01:11:10.625Z,978.17
2018-07-10T01:12:05.326Z,978.17
2018-07-10T01:13:05.862Z,978.21
2018-07-10T01:14:05.165Z,978.38
2018-07-10T01:15:05.229Z,978.27
2018-07-10T01:16:05.816Z,978.27
2018-07-10T01:17:05.684Z,978.18
2018-07-10T01:18:05.513Z,978.36
2018-07-10T01:19:05.768Z,978.39
2018-07-10T01:20:10.181Z,978.30
2018-07-10T01:21:05.155Z,978.36
2018-07-10T01:22:05.713Z,978.25
2018-07-10T01:23:05.520Z,978.19
2018-07-10T01:24:05.226Z,978.19
2018-07-10T01:25:05.333Z,978.16
2018-07-10T01:26:05.641Z,978.19
2018-07-10T01:27:05.506Z,978.17
2018-07-10T01:28:05.120Z,978.17
2018-07-10T01:29:05.630Z,978.17
2018-07-10T01:30:04.973Z,978.11
2018-07-10T01:31:05.268Z,978.20
2018-07-10T01:32:04.955Z,978.23
2018-07-10T01:33:05.654Z,978.26
2018-07-10T01:34:05.544Z,978.23
2018-07-10T01:35:05.546Z,978.35
2018-07-10T01:36:05.596Z,978.32
2018-07-10T01:37:05.517Z,978.20
2018-07-10T01:38:05.101Z,978.35
2018-07-10T01:39:05.321Z,978.20
2018-07-10T01:40:05.091Z,978.23
2018-07-10T01:41:05.589Z,978.35
2018-07-10T01:42:05.158Z,978.32
2018-07-10T01:43:05.682Z,978.26
2018-07-10T01:44:05.272Z,978.26
2018-07-10T01:45:05.729Z,978.35
2018-07-10T01:46:05.446Z,978.26
2018-07-10T01:47:05.059Z,978.41
2018-07-10T01:48:05.245Z,978.29
2018-07-10T01:49:04.951Z,978.23
2018-07-10T01:50:05.302Z,978.14
2018-07-10T01:51:05.859Z,978.20
2018-07-10T01:52:05.262Z,978.20
2018-07-10T01:53:05.493Z,978.09
2018-07-10T01:54:06.001Z,978.23
2018-07-10T01:55:05.292Z,978.20
2018-07-10T01:56:05.846Z,978.09
2018-07-10T01:57:05.511Z,978.15
2018-07-10T01:58:05.160Z,978.09
2018-07-10T01:59:05.089Z,977.97
2018-07-10T02:00:05.106Z,977.92
2018-07-10T02:01:05.610Z,977.83
2018-07-10T02:02:05.183Z,978.03
2018-07-10T02:03:05.892Z,978.00
2018-07-10T02:04:10.422Z,977.98
2018-07-10T02:05:05.128Z,977.86
2018-07-10T02:06:05.738Z,977.89
2018-07-10T02:07:05.087Z,977.86
2018-07-10T02:08:05.998Z,977.77
2018-07-10T02:09:05.768Z,977.86
2018-07-10T02:10:05.589Z,977.78
2018-07-10T02:11:05.032Z,977.98
2018-07-10T02:12:05.631Z,977.80
2018-07-10T02:13:05.483Z,977.92
2018-07-10T02:14:05.373Z,977.83
2018-07-10T02:15:05.788Z,977.69
2018-07-10T02:16:05.576Z,977.66
2018-07-10T02:17:05.186Z,977.53
2018-07-10T02:18:09.892Z,977.61
2018-07-10T02:19:05.851Z,977.72
2018-07-10T02:20:05.214Z,977.72
2018-07-10T02:21:05.590Z,977.66
2018-07-10T02:22:04.989Z,977.53
2018-07-10T02:23:05.504Z,977.56
2018-07-10T02:24:04.915Z,977.81
2018-07-10T02:25:04.894Z,977.61
2018-07-10T02:26:05.380Z,977.66
2018-07-10T02:27:05.489Z,977.78
2018-07-10T02:28:05.613Z,977.59
2018-07-10T02:29:05.278Z,977.61
2018-07-10T02:30:05.443Z,977.50
2018-07-10T02:31:05.051Z,977.62
2018-07-10T02:32:05.091Z,977.47
2018-07-10T02:33:05.773Z,977.62
2018-07-10T02:34:05.690Z,977.67
2018-07-10T02:35:05.425Z,977.62
2018-07-10T02:36:05.511Z,977.59
2018-07-10T02:37:05.668Z,977.53
2018-07-10T02:38:05.423Z,977.73
2018-07-10T02:39:05.251Z,977.36
2018-07-10T02:40:10.295Z,977.70
2018-07-10T02:41:05.595Z,977.48
2018-07-10T02:42:05.230Z,977.50
2018-07-10T02:43:05.176Z,977.48
2018-07-10T02:44:05.056Z,977.50
2018-07-10T02:45:04.835Z,977.59
2018-07-10T02:46:09.977Z,977.48
2018-07-10T02:47:05.754Z,977.45
2018-07-10T02:48:05.445Z,977.39
2018-07-10T02:49:05.750Z,977.42
2018-07-10T02:50:05.812Z,977.31
2018-07-10T02:51:05.871Z,977.33
2018-07-10T02:52:05.614Z,977.45
2018-07-10T02:53:05.596Z,977.42
2018-07-10T02:54:05.427Z,977.42
2018-07-10T02:55:05.506Z,977.51
2018-07-10T02:56:05.565Z,977.48
2018-07-10T02:57:10.088Z,977.48
2018-07-10T02:58:04.825Z,977.31
2018-07-10T02:59:04.957Z,977.39
2018-07-10T03:00:05.075Z,977.39
2018-07-10T03:01:04.978Z,977.31
2018-07-10T03:02:04.952Z,977.31
2018-07-10T03:03:05.846Z,977.14
2018-07-10T03:04:05.411Z,977.34
2018-07-10T03:05:05.021Z,977.31
2018-07-10T03:06:05.409Z,977.19
2018-07-10T03:07:05.447Z,977.25
2018-07-10T03:08:05.519Z,977.34
2018-07-10T03:09:05.566Z,977.37
2018-07-10T03:10:05.564Z,977.43
2018-07-10T03:11:04.965Z,977.37
2018-07-10T03:12:05.038Z,977.37
2018-07-10T03:13:05.094Z,977.34
2018-07-10T03:14:05.353Z,977.46
2018-07-10T03:15:05.236Z,977.40
2018-07-10T03:16:05.602Z,977.37
2018-07-10T03:17:05.673Z,977.25
2018-07-10T03:18:05.608Z,977.37
2018-07-10T03:19:10.545Z,977.43
2018-07-10T03:20:05.473Z,977.22
2018-07-10T03:21:05.074Z,977.25
2018-07-10T03:22:05.879Z,977.08
2018-07-10T03:23:05.335Z,977.11
2018-07-10T03:24:05.084Z,977.17
2018-07-10T03:25:05.589Z,977.08
2018-07-10T03:26:05.416Z,977.08
2018-07-10T03:27:04.924Z,977.11
2018-07-10T03:28:05.844Z,977.06
2018-07-10T03:29:05.695Z,977.17
2018-07-10T03:30:10.596Z,977.14
2018-07-10T03:31:05.280Z,977.09
2018-07-10T03:32:09.925Z,977.17
2018-07-10T03:33:05.615Z,977.17
2018-07-10T03:34:05.639Z,977.26
2018-07-10T03:35:05.495Z,977.20
2018-07-10T03:36:05.263Z,977.23
2018-07-10T03:37:05.856Z,977.26
2018-07-10T03:38:05.515Z,977.23
2018-07-10T03:39:05.282Z,977.12
2018-07-10T03:40:10.789Z,977.09
2018-07-10T03:41:05.540Z,977.09
2018-07-10T03:42:05.385Z,977.20
2018-07-10T03:43:05.476Z,977.17
2018-07-10T03:44:05.260Z,977.20
2018-07-10T03:45:05.037Z,977.20
2018-07-10T03:46:05.550Z,977.14
2018-07-10T03:47:04.860Z,977.20
2018-07-10T03:48:06.050Z,977.29
2018-07-10T03:49:05.409Z,977.29
2018-07-10T03:50:05.481Z,977.26
2018-07-10T03:51:05.437Z,977.14
2018-07-10T03:52:05.315Z,977.20
2018-07-10T03:53:05.467Z,977.20
2018-07-10T03:54:05.555Z,977.20
2018-07-10T03:55:05.709Z,977.32
2018-07-10T03:56:05.093Z,977.08
2018-07-10T03:57:05.352Z,977.23
2018-07-10T03:58:05.770Z,977.14
2018-07-10T03:59:05.162Z,977.14
2018-07-10T04:00:05.284Z,977.17
2018-07-10T04:01:05.103Z,977.11
2018-07-10T04:02:05.697Z,977.14
2018-07-10T04:03:05.610Z,977.14
2018-07-10T04:04:05.461Z,977.11
2018-07-10T04:05:05.804Z,977.14
2018-07-10T04:06:05.756Z,976.97
2018-07-10T04:07:05.253Z,977.09
2018-07-10T04:08:05.907Z,977.14
2018-07-10T04:09:05.513Z,977.14
2018-07-10T04:10:05.628Z,977.17
2018-07-10T04:11:10.164Z,977.11
2018-07-10T04:12:04.874Z,976.97
2018-07-10T04:13:05.673Z,977.00
2018-07-10T04:14:05.214Z,977.06
2018-07-10T04:15:04.874Z,976.97
2018-07-10T04:16:05.332Z,976.97
2018-07-10T04:17:05.513Z,976.91
2018-07-10T04:18:05.238Z,976.97
2018-07-10T04:19:05.182Z,977.00
2018-07-10T04:20:05.436Z,977.00
2018-07-10T04:21:05.397Z,977.00
2018-07-10T04:22:05.784Z,976.88
2018-07-10T04:23:05.556Z,976.97
2018-07-10T04:24:05.083Z,977.17
2018-07-10T04:25:05.996Z,977.06
2018-07-10T04:26:06.081Z,976.88
2018-07-10T04:27:05.394Z,976.91
2018-07-10T04:28:05.187Z,977.06
2018-07-10T04:29:05.283Z,977.03
2018-07-10T04:30:05.826Z,977.11
2018-07-10T04:31:05.287Z,977.14
2018-07-10T04:32:04.928Z,976.94
2018-07-10T04:33:05.462Z,977.06
2018-07-10T04:34:05.291Z,977.06
2018-07-10T04:35:05.375Z,977.03
2018-07-10T04:36:05.028Z,977.09
2018-07-10T04:37:06.454Z,977.03
2018-07-10T04:38:05.167Z,977.03
2018-07-10T04:39:04.964Z,977.00
2018-07-10T04:40:10.730Z,976.88
2018-07-10T04:41:05.637Z,976.94
2018-07-10T04:42:05.675Z,977.06
2018-07-10T04:43:05.304Z,977.03
2018-07-10T04:44:05.853Z,976.97
2018-07-10T04:45:05.324Z,977.09
2018-07-10T04:46:05.321Z,977.06
2018-07-10T04:47:05.692Z,976.94
2018-07-10T04:48:05.874Z,976.97
2018-07-10T04:49:05.851Z,976.94
2018-07-10T04:50:05.446Z,976.91
2018-07-10T04:51:05.168Z,977.06
2018-07-10T04:52:05.663Z,977.06
2018-07-10T04:53:05.166Z,976.89
2018-07-10T04:54:04.857Z,976.89
2018-07-10T04:55:05.422Z,976.89
2018-07-10T04:56:05.810Z,976.80
2018-07-10T04:57:05.123Z,976.86
2018-07-10T04:58:05.697Z,976.74
2018-07-10T04:59:05.445Z,976.83
2018-07-10T05:00:05.675Z,976.83
2018-07-10T05:01:05.187Z,976.80
2018-07-10T05:02:05.739Z,976.83
2018-07-10T05:03:05.251Z,976.86
2018-07-10T05:04:05.497Z,976.97
2018-07-10T05:05:05.448Z,976.94
2018-07-10T05:06:05.181Z,976.86
2018-07-10T05:07:05.694Z,976.89
2018-07-10T05:08:05.013Z,976.69
2018-07-10T05:09:10.588Z,976.83
2018-07-10T05:10:05.265Z,976.88
2018-07-10T05:11:05.892Z,976.72
2018-07-10T05:12:05.955Z,976.72
2018-07-10T05:13:05.566Z,976.83
2018-07-10T05:14:05.611Z,976.86
2018-07-10T05:15:05.213Z,976.89
2018-07-10T05:16:04.929Z,976.97
2018-07-10T05:17:05.490Z,976.83
2018-07-10T05:18:05.623Z,976.83
2018-07-10T05:19:05.773Z,976.80
2018-07-10T05:20:04.849Z,976.74
2018-07-10T05:21:05.267Z,976.83
2018-07-10T05:22:05.916Z,976.80
2018-07-10T05:23:05.537Z,976.80
2018-07-10T05:24:05.142Z,976.83
2018-07-10T05:25:05.648Z,976.78
2018-07-10T05:26:05.175Z,976.89
2018-07-10T05:27:05.455Z,976.92
2018-07-10T05:28:05.392Z,976.81
2018-07-10T05:29:05.988Z,976.90
2018-07-10T05:30:05.945Z,976.87
2018-07-10T05:31:05.591Z,976.76
2018-07-10T05:32:04.918Z,976.76
2018-07-10T05:33:05.294Z,976.88
2018-07-10T05:34:04.941Z,977.00
2018-07-10T05:35:05.465Z,977.06
2018-07-10T05:36:05.150Z,976.92
2018-07-10T05:37:05.022Z,977.04
2018-07-10T05:38:05.751Z,976.87
2018-07-10T05:39:05.879Z,976.96
2018-07-10T05:40:05.478Z,976.99
2018-07-10T05:41:05.339Z,976.85
2018-07-10T05:42:05.409Z,977.09
2018-07-10T05:43:05.432Z,977.03
2018-07-10T05:44:05.377Z,977.01
2018-07-10T05:45:05.872Z,977.04
2018-07-10T05:46:05.441Z,976.95
2018-07-10T05:47:07.041Z,977.27
2018-07-10T05:48:05.726Z,977.24
2018-07-10T05:49:05.360Z,977.13
2018-07-10T05:50:05.104Z,976.96
2018-07-10T05:51:06.297Z,977.10
2018-07-10T05:52:05.517Z,976.96
2018-07-10T05:53:05.420Z,977.02
2018-07-10T05:54:10.401Z,977.05
2018-07-10T05:55:05.619Z,977.05
2018-07-10T05:56:05.833Z,977.08
2018-07-10T05:57:05.774Z,977.08
2018-07-10T05:58:04.902Z,977.16
2018-07-10T05:59:05.386Z,977.02
2018-07-10T06:00:05.186Z,977.13
2018-07-10T06:01:05.784Z,977.10
2018-07-10T06:02:05.295Z,977.02
2018-07-10T06:03:05.074Z,977.13
2018-07-10T06:04:05.709Z,977.25
2018-07-10T06:05:05.744Z,977.28
2018-07-10T06:06:05.156Z,977.25
2018-07-10T06:07:05.202Z,977.33
2018-07-10T06:08:04.903Z,977.25
2018-07-10T06:09:06.102Z,977.25
2018-07-10T06:10:05.626Z,977.25
2018-07-10T06:11:05.487Z,977.37
2018-07-10T06:12:05.441Z,977.25
2018-07-10T06:13:05.037Z,977.31
2018-07-10T06:14:05.688Z,977.17
2018-07-10T06:15:05.829Z,977.14
2018-07-10T06:16:05.848Z,977.14
2018-07-10T06:17:05.174Z,976.97
2018-07-10T06:18:05.151Z,977.06
2018-07-10T06:19:05.931Z,977.14
2018-07-10T06:20:05.693Z,977.09
2018-07-10T06:21:05.333Z,977.12
2018-07-10T06:22:05.995Z,977.24
2018-07-10T06:23:05.011Z,977.15
2018-07-10T06:24:05.517Z,977.21
2018-07-10T06:25:05.256Z,977.30
2018-07-10T06:26:05.584Z,977.33
2018-07-10T06:27:05.796Z,977.30
2018-07-10T06:28:05.188Z,977.30
2018-07-10T06:29:05.726Z,977.42
2018-07-10T06:30:04.942Z,977.31
2018-07-10T06:31:05.412Z,977.36
2018-07-10T06:32:05.102Z,977.36
2018-07-10T06:33:05.133Z,977.45
2018-07-10T06:34:05.189Z,977.28
2018-07-10T06:35:11.871Z,977.25
2018-07-10T06:36:05.780Z,977.43
2018-07-10T06:37:05.887Z,977.31
2018-07-10T06:38:05.348Z,977.25
2018-07-10T06:39:04.921Z,977.25
2018-07-10T06:40:05.676Z,977.40
2018-07-10T06:41:05.715Z,977.28
2018-07-10T06:42:05.600Z,977.31
2018-07-10T06:43:05.588Z,977.32
2018-07-10T06:44:05.355Z,977.43
2018-07-10T06:45:05.797Z,977.29
2018-07-10T06:46:05.180Z,977.40
2018-07-10T06:47:05.275Z,977.52
2018-07-10T06:48:05.247Z,977.40
2018-07-10T06:49:05.342Z,977.43
2018-07-10T06:50:06.857Z,977.43
2018-07-10T06:51:04.992Z,977.40
2018-07-10T06:52:05.253Z,977.43
2018-07-10T06:53:11.070Z,977.46
2018-07-10T06:54:05.450Z,977.23
2018-07-10T06:55:05.319Z,977.32
2018-07-10T06:56:05.284Z,977.38
2018-07-10T06:57:10.542Z,977.29
2018-07-10T06:58:05.685Z,977.15
2018-07-10T06:59:04.936Z,977.26
2018-07-10T07:00:04.850Z,977.29
2018-07-10T07:01:10.653Z,977.35
2018-07-10T07:02:05.476Z,977.26
2018-07-10T07:03:04.898Z,977.35
2018-07-10T07:04:05.144Z,977.26
2018-07-10T07:05:05.588Z,977.44
2018-07-10T07:06:05.327Z,977.38
2018-07-10T07:07:05.567Z,977.52
2018-07-10T07:08:10.038Z,977.38
2018-07-10T07:09:05.404Z,977.41
2018-07-10T07:10:05.468Z,977.46
2018-07-10T07:11:05.079Z,977.55
2018-07-10T07:12:04.986Z,977.46
2018-07-10T07:13:05.457Z,977.52
2018-07-10T07:14:05.190Z,977.55
2018-07-10T07:15:10.759Z,977.52
2018-07-10T07:16:05.521Z,977.52
2018-07-10T07:17:05.629Z,977.65
2018-07-10T07:18:05.728Z,977.49
2018-07-10T07:19:04.930Z,977.68
2018-07-10T07:20:05.713Z,977.48
2018-07-10T07:21:05.474Z,977.60
2018-07-10T07:22:05.248Z,977.54
2018-07-10T07:23:05.705Z,977.48
2018-07-10T07:24:05.463Z,977.67
2018-07-10T07:25:05.561Z,977.60
2018-07-10T07:26:04.978Z,977.67
2018-07-10T07:27:05.908Z,977.70
2018-07-10T07:28:05.257Z,977.67
2018-07-10T07:29:05.234Z,977.79
2018-07-10T07:30:05.198Z,977.73
2018-07-10T07:31:05.798Z,977.62
2018-07-10T07:32:06.479Z,977.73
2018-07-10T07:33:05.056Z,977.67
2018-07-10T07:34:05.631Z,977.81
2018-07-10T07:35:05.579Z,977.70
2018-07-10T07:36:05.730Z,977.70
2018-07-10T07:37:05.725Z,977.81
2018-07-10T07:38:05.329Z,977.67
2018-07-10T07:39:05.154Z,977.70
2018-07-10T07:40:06.209Z,977.59
2018-07-10T07:41:05.881Z,977.70
2018-07-10T07:42:05.152Z,977.67
2018-07-10T07:43:05.759Z,977.87
2018-07-10T07:44:06.061Z,977.67
2018-07-10T07:45:05.465Z,977.50
2018-07-10T07:46:05.025Z,977.59
2018-07-10T07:47:05.061Z,977.67
2018-07-10T07:48:05.432Z,977.81
2018-07-10T07:49:05.205Z,977.62
2018-07-10T07:50:05.666Z,977.56
2018-07-10T07:51:05.498Z,977.76
2018-07-10T07:52:04.865Z,977.62
2018-07-10T07:53:05.296Z,977.79
2018-07-10T07:54:05.596Z,977.68
2018-07-10T07:55:05.106Z,977.74
2018-07-10T07:56:04.997Z,977.60
2018-07-10T07:57:05.889Z,977.65
2018-07-10T07:58:04.818Z,977.65
2018-07-10T07:59:05.518Z,977.65
2018-07-10T08:00:05.172Z,977.74
2018-07-10T08:01:05.666Z,977.52
2018-07-10T08:02:05.709Z,977.58
2018-07-10T08:03:05.434Z,977.58
2018-07-10T08:04:05.109Z,977.61
2018-07-10T08:05:05.675Z,977.65
2018-07-10T08:06:05.350Z,977.58
2018-07-10T08:07:05.812Z,977.46
2018-07-10T08:08:05.655Z,977.58
2018-07-10T08:09:05.313Z,977.71
2018-07-10T08:10:05.711Z,977.58
2018-07-10T08:11:04.897Z,977.55
2018-07-10T08:12:05.701Z,977.61
2018-07-10T08:13:05.645Z,977.71
2018-07-10T08:14:05.462Z,977.60
2018-07-10T08:15:05.191Z,977.71
2018-07-10T08:16:05.974Z,977.60
2018-07-10T08:17:10.777Z,977.65
2018-07-10T08:18:05.189Z,977.65
2018-07-10T08:19:05.500Z,977.60
2018-07-10T08:20:05.468Z,977.79
2018-07-10T08:21:10.377Z,977.71
2018-07-10T08:22:05.184Z,977.68
2018-07-10T08:23:10.717Z,977.52
2018-07-10T08:24:05.794Z,977.60
2018-07-10T08:25:05.796Z,977.65
2018-07-10T08:26:05.313Z,977.74
2018-07-10T08:27:05.722Z,977.74
2018-07-10T08:28:05.207Z,977.74
2018-07-10T08:29:04.936Z,977.68
2018-07-10T08:30:04.954Z,977.60
2018-07-10T08:31:05.099Z,977.48
2018-07-10T08:32:05.167Z,977.57
2018-07-10T08:33:05.784Z,977.68
2018-07-10T08:34:05.471Z,977.51
2018-07-10T08:35:05.745Z,977.40
2018-07-10T08:36:05.488Z,977.48
2018-07-10T08:37:05.110Z,977.54
2018-07-10T08:38:05.447Z,977.42
2018-07-10T08:39:05.534Z,977.48
2018-07-10T08:40:05.469Z,977.56
2018-07-10T08:41:05.122Z,977.36
2018-07-10T08:42:10.627Z,977.51
2018-07-10T08:43:05.925Z,977.42
2018-07-10T08:44:05.856Z,977.36
2018-07-10T08:45:05.785Z,977.27
2018-07-10T08:46:05.153Z,977.39
2018-07-10T08:47:05.178Z,977.24
2018-07-10T08:48:04.914Z,977.39
2018-07-10T08:49:05.460Z,977.39
2018-07-10T08:50:05.159Z,977.30
2018-07-10T08:51:05.658Z,977.44
2018-07-10T08:52:05.306Z,977.50
2018-07-10T08:53:05.294Z,977.27
2018-07-10T08:54:05.769Z,977.36
2018-07-10T08:55:05.328Z,977.19
2018-07-10T08:56:05.151Z,977.44
2018-07-10T08:57:04.913Z,977.42
2018-07-10T08:58:05.869Z,977.33
2018-07-10T08:59:05.045Z,977.30
2018-07-10T09:00:05.186Z,977.39
2018-07-10T09:01:04.952Z,977.44
2018-07-10T09:02:05.978Z,977.30
2018-07-10T09:03:05.184Z,977.35
2018-07-10T09:04:04.909Z,977.35
2018-07-10T09:05:05.419Z,977.32
2018-07-10T09:06:05.373Z,977.38
2018-07-10T09:07:05.490Z,977.26
2018-07-10T09:08:06.179Z,977.23
2018-07-10T09:09:05.240Z,977.26
2018-07-10T09:10:04.913Z,977.26
2018-07-10T09:11:04.921Z,977.31
2018-07-10T09:12:04.924Z,977.43
2018-07-10T09:13:05.469Z,977.22
2018-07-10T09:14:05.235Z,977.22
2018-07-10T09:15:05.100Z,977.25
2018-07-10T09:16:04.876Z,977.28
2018-07-10T09:17:10.427Z,977.33
2018-07-10T09:18:05.003Z,977.33
2018-07-10T09:19:05.163Z,977.27
2018-07-10T09:20:04.893Z,977.15
2018-07-10T09:21:06.126Z,977.35
2018-07-10T09:22:10.305Z,977.32
2018-07-10T09:23:05.272Z,977.29
2018-07-10T09:24:04.862Z,977.24
2018-07-10T09:25:05.583Z,977.26
2018-07-10T09:26:05.821Z,977.35
2018-07-10T09:27:05.722Z,977.29
2018-07-10T09:28:05.710Z,977.26
2018-07-10T09:29:05.201Z,977.40
2018-07-10T09:30:05.463Z,977.25
2018-07-10T09:31:05.839Z,977.31
2018-07-10T09:32:05.388Z,977.25
2018-07-10T09:33:05.301Z,977.24
2018-07-10T09:34:05.816Z,977.30
2018-07-10T09:35:05.632Z,977.15
2018-07-10T09:36:05.378Z,977.20
2018-07-10T09:37:05.854Z,977.17
2018-07-10T09:38:05.288Z,977.17
2018-07-10T09:39:05.098Z,977.16
2018-07-10T09:40:05.356Z,977.22
2018-07-10T09:41:05.101Z,977.24
2018-07-10T09:42:05.224Z,977.27
2018-07-10T09:43:05.390Z,977.23
2018-07-10T09:44:06.108Z,977.12
2018-07-10T09:45:05.117Z,977.14
2018-07-10T09:46:05.594Z,977.08
2018-07-10T09:47:05.346Z,977.19
2018-07-10T09:48:06.042Z,977.05
2018-07-10T09:49:05.014Z,977.10
2018-07-10T09:50:05.690Z,977.16
2018-07-10T09:51:05.005Z,977.19
2018-07-10T09:52:05.727Z,977.13
2018-07-10T09:53:06.510Z,977.10
2018-07-10T09:54:04.882Z,977.01
2018-07-10T09:55:05.766Z,976.96
2018-07-10T09:56:05.109Z,977.01
2018-07-10T09:57:05.800Z,977.07
2018-07-10T09:58:05.416Z,977.07
2018-07-10T09:59:05.041Z,977.07
2018-07-10T10:00:05.133Z,977.10
2018-07-10T10:01:05.439Z,976.89
2018-07-10T10:02:05.496Z,976.98
2018-07-10T10:03:04.986Z,977.15
2018-07-10T10:04:05.726Z,976.94
2018-07-10T10:05:05.803Z,977.02
2018-07-10T10:06:05.927Z,976.96
2018-07-10T10:07:05.213Z,976.99
2018-07-10T10:08:04.972Z,976.98
2018-07-10T10:09:05.585Z,977.01
2018-07-10T10:10:05.318Z,976.89
2018-07-10T10:11:05.785Z,977.10
2018-07-10T10:12:05.533Z,976.95
2018-07-10T10:13:05.768Z,976.98
2018-07-10T10:14:05.162Z,977.01
2018-07-10T10:15:05.736Z,976.89
2018-07-10T10:16:05.869Z,977.09
2018-07-10T10:17:05.228Z,976.98
2018-07-10T10:18:05.680Z,976.95
2018-07-10T10:19:05.750Z,976.95
2018-07-10T10:20:05.162Z,977.03
2018-07-10T10:21:05.643Z,976.85
2018-07-10T10:22:05.501Z,976.94
2018-07-10T10:23:05.299Z,976.99
2018-07-10T10:24:05.210Z,977.02
2018-07-10T10:25:05.004Z,977.02
2018-07-10T10:26:05.498Z,976.96
2018-07-10T10:27:05.585Z,976.93
2018-07-10T10:28:05.467Z,977.01
2018-07-10T10:29:05.390Z,977.01
2018-07-10T10:30:05.627Z,976.89
2018-07-10T10:31:05.599Z,976.98
2018-07-10T10:32:05.302Z,976.95
2018-07-10T10:33:05.766Z,976.94
2018-07-10T10:34:05.363Z,976.86
2018-07-10T10:35:05.779Z,976.85
2018-07-10T10:36:04.906Z,976.88
2018-07-10T10:37:05.819Z,976.82
2018-07-10T10:38:05.427Z,976.79
2018-07-10T10:39:05.602Z,976.85
2018-07-10T10:40:05.095Z,976.87
2018-07-10T10:41:05.708Z,976.90
2018-07-10T10:42:05.282Z,976.90
2018-07-10T10:43:05.361Z,976.78
2018-07-10T10:44:05.117Z,976.68
2018-07-10T10:45:04.993Z,976.68
2018-07-10T10:46:05.343Z,976.79
2018-07-10T10:47:04.889Z,976.74
2018-07-10T10:48:05.446Z,976.74
2018-07-10T10:49:04.851Z,976.74
2018-07-10T10:50:10.526Z,976.81
2018-07-10T10:51:05.332Z,976.74
2018-07-10T10:52:05.819Z,976.71
2018-07-10T10:53:10.844Z,976.76
2018-07-10T10:54:06.145Z,976.68
2018-07-10T10:55:05.372Z,976.76
2018-07-10T10:56:05.452Z,976.82
2018-07-10T10:57:05.219Z,976.85
2018-07-10T10:58:05.730Z,976.86
2018-07-10T10:59:05.026Z,976.72
2018-07-10T11:00:05.650Z,976.70
2018-07-10T11:01:05.958Z,976.77
2018-07-10T11:02:04.964Z,976.73
2018-07-10T11:03:06.119Z,976.73
2018-07-10T11:04:05.497Z,976.75
2018-07-10T11:05:05.182Z,976.81
2018-07-10T11:06:05.748Z,976.84
2018-07-10T11:07:10.375Z,976.73
2018-07-10T11:08:05.709Z,976.87
2018-07-10T11:09:05.791Z,976.73
2018-07-10T11:10:05.858Z,976.70
2018-07-10T11:11:05.459Z,976.56
2018-07-10T11:12:05.107Z,976.62
2018-07-10T11:13:06.290Z,976.59
2018-07-10T11:14:05.632Z,976.62
2018-07-10T11:15:05.123Z,976.71
2018-07-10T11:16:05.625Z,976.74
2018-07-10T11:17:05.482Z,976.71
2018-07-10T11:18:05.779Z,976.59
2018-07-10T11:19:05.652Z,976.59
2018-07-10T11:20:05.421Z,976.64
2018-07-10T11:21:05.462Z,976.61
2018-07-10T11:22:05.136Z,976.67
2018-07-10T11:23:05.726Z,976.70
2018-07-10T11:24:05.457Z,976.61
2018-07-10T11:25:05.570Z,976.61
2018-07-10T11:26:05.786Z,976.58
2018-07-10T11:27:04.961Z,976.58
2018-07-10T11:28:05.011Z,976.63
2018-07-10T11:29:04.892Z,976.64
2018-07-10T11:30:06.219Z,976.69
2018-07-10T11:31:05.399Z,976.67
2018-07-10T11:32:05.084Z,976.55
2018-07-10T11:33:04.850Z,976.58
2018-07-10T11:34:05.556Z,976.67
2018-07-10T11:35:05.704Z,976.55
2018-07-10T11:36:05.536Z,976.52
2018-07-10T11:37:05.032Z,976.73
2018-07-10T11:38:05.732Z,976.64
2018-07-10T11:39:05.412Z,976.67
2018-07-10T11:40:05.212Z,976.61
2018-07-10T11:41:05.403Z,976.75
2018-07-10T11:42:05.352Z,976.73
2018-07-10T11:43:04.934Z,976.67
2018-07-10T11:44:05.556Z,976.61
2018-07-10T11:45:05.684Z,976.86
2018-07-10T11:46:05.655Z,976.67
2018-07-10T11:47:04.990Z,976.72
2018-07-10T11:48:05.857Z,976.80
2018-07-10T11:49:05.188Z,976.66
2018-07-10T11:50:05.611Z,976.77
2018-07-10T11:51:05.553Z,976.77
2018-07-10T11:52:05.523Z,976.77
2018-07-10T11:53:04.912Z,976.72
2018-07-10T11:54:05.031Z,976.77
2018-07-10T11:55:05.296Z,976.67
2018-07-10T11:56:05.752Z,976.77
2018-07-10T11:57:05.823Z,976.64
2018-07-10T11:58:05.931Z,976.61
2018-07-10T11:59:10.372Z,976.70
2018-07-10T12:00:05.173Z,976.73
2018-07-10T12:01:05.239Z,976.75
2018-07-10T12:02:05.065Z,976.67
2018-07-10T12:03:05.758Z,976.61
2018-07-10T12:04:05.835Z,976.64
2018-07-10T12:05:05.807Z,976.73
2018-07-10T12:06:05.430Z,976.77
2018-07-10T12:07:05.625Z,976.66
2018-07-10T12:08:05.456Z,976.60
2018-07-10T12:09:05.696Z,976.57
2018-07-10T12:10:05.387Z,976.63
2018-07-10T12:11:04.918Z,976.69
2018-07-10T12:12:05.553Z,976.74
2018-07-10T12:13:05.980Z,976.63
2018-07-10T12:14:05.817Z,976.57
2018-07-10T12:15:05.402Z,976.65
2018-07-10T12:16:04.893Z,976.62
2018-07-10T12:17:05.989Z,976.68
2018-07-10T12:18:05.548Z,976.65
2018-07-10T12:19:04.887Z,976.76
2018-07-10T12:20:05.516Z,976.68
2018-07-10T12:21:05.721Z,976.59
2018-07-10T12:22:04.939Z,976.53
2018-07-10T12:23:05.930Z,976.70
2018-07-10T12:24:05.031Z,976.67
2018-07-10T12:25:04.925Z,976.61
2018-07-10T12:26:05.407Z,976.70
2018-07-10T12:27:04.955Z,976.61
2018-07-10T12:28:06.409Z,976.66